sensor_id;sensor_type;location;lat;lon;timestamp;P1;durP1;ratioP1;P2;durP2;ratioP2
7661;SDS011;30314;48.184;11.510;2023-08-20T00:02:20;8.20;;;4.73;;
7661;SDS011;30314;48.184;11.510;2023-08-20T00:04:49;8.10;;;5.07;;
7661;SDS011;30314;48.184;11.510;2023-08-20T00:07:17;7.20;;;5.07;;
7661;SDS011;30314;48.184;11.510;2023-08-20T00:09:44;6.63;;;4.90;;
7661;SDS011;30314;48.184;11.510;2023-08-20T00:12:11;8.00;;;4.97;;
7661;SDS011;30314;48.184;11.510;2023-08-20T00:17:34;8.33;;;5.60;;
7661;SDS011;30314;48.184;11.510;2023-08-20T00:20:03;12.07;;;4.77;;
7661;SDS011;30314;48.184;11.510;2023-08-20T00:22:41;8.33;;;5.30;;
7661;SDS011;30314;48.184;11.510;2023-08-20T00:25:11;11.87;;;5.53;;
7661;SDS011;30314;48.184;11.510;2023-08-20T00:27:39;8.50;;;4.80;;
7661;SDS011;30314;48.184;11.510;2023-08-20T00:30:09;6.10;;;5.00;;
7661;SDS011;30314;48.184;11.510;2023-08-20T00:32:36;9.23;;;5.03;;
7661;SDS011;30314;48.184;11.510;2023-08-20T00:35:03;8.17;;;5.13;;
7661;SDS011;30314;48.184;11.510;2023-08-20T00:37:31;9.97;;;5.37;;
7661;SDS011;30314;48.184;11.510;2023-08-20T00:39:58;8.77;;;5.10;;
7661;SDS011;30314;48.184;11.510;2023-08-20T00:42:25;8.47;;;5.53;;
7661;SDS011;30314;48.184;11.510;2023-08-20T00:44:52;7.70;;;5.00;;
7661;SDS011;30314;48.184;11.510;2023-08-20T00:47:19;9.57;;;5.00;;
7661;SDS011;30314;48.184;11.510;2023-08-20T00:49:47;6.50;;;5.20;;
7661;SDS011;30314;48.184;11.510;2023-08-20T00:52:14;10.10;;;4.80;;
7661;SDS011;30314;48.184;11.510;2023-08-20T00:54:46;11.93;;;5.33;;
7661;SDS011;30314;48.184;11.510;2023-08-20T00:57:14;9.47;;;6.00;;
7661;SDS011;30314;48.184;11.510;2023-08-20T00:59:41;8.77;;;5.03;;
7661;SDS011;30314;48.184;11.510;2023-08-20T01:02:09;11.70;;;5.20;;
7661;SDS011;30314;48.184;11.510;2023-08-20T01:04:36;8.50;;;5.57;;
7661;SDS011;30314;48.184;11.510;2023-08-20T01:12:44;8.47;;;4.90;;
7661;SDS011;30314;48.184;11.510;2023-08-20T01:15:12;6.50;;;4.87;;
7661;SDS011;30314;48.184;11.510;2023-08-20T01:17:43;12.60;;;5.30;;
7661;SDS011;30314;48.184;11.510;2023-08-20T01:20:12;6.40;;;4.87;;
7661;SDS011;30314;48.184;11.510;2023-08-20T01:30:58;10.13;;;5.90;;
7661;SDS011;30314;48.184;11.510;2023-08-20T01:33:27;9.20;;;5.63;;
7661;SDS011;30314;48.184;11.510;2023-08-20T01:35:54;10.80;;;5.73;;
7661;SDS011;30314;48.184;11.510;2023-08-20T01:38:21;7.30;;;4.57;;
7661;SDS011;30314;48.184;11.510;2023-08-20T01:40:48;8.13;;;5.80;;
7661;SDS011;30314;48.184;11.510;2023-08-20T01:43:16;7.20;;;5.30;;
7661;SDS011;30314;48.184;11.510;2023-08-20T01:45:43;7.40;;;4.90;;
7661;SDS011;30314;48.184;11.510;2023-08-20T01:48:09;8.97;;;5.70;;
7661;SDS011;30314;48.184;11.510;2023-08-20T01:50:36;8.70;;;5.77;;
7661;SDS011;30314;48.184;11.510;2023-08-20T01:53:03;6.30;;;4.60;;
7661;SDS011;30314;48.184;11.510;2023-08-20T01:55:29;6.50;;;4.70;;
7661;SDS011;30314;48.184;11.510;2023-08-20T01:57:58;11.30;;;5.50;;
7661;SDS011;30314;48.184;11.510;2023-08-20T02:00:25;9.07;;;5.10;;
7661;SDS011;30314;48.184;11.510;2023-08-20T02:02:53;7.07;;;4.47;;
7661;SDS011;30314;48.184;11.510;2023-08-20T02:05:19;7.07;;;4.90;;
7661;SDS011;30314;48.184;11.510;2023-08-20T02:07:46;9.20;;;5.30;;
7661;SDS011;30314;48.184;11.510;2023-08-20T02:10:13;5.80;;;4.30;;
7661;SDS011;30314;48.184;11.510;2023-08-20T02:12:40;7.47;;;4.37;;
7661;SDS011;30314;48.184;11.510;2023-08-20T02:15:08;7.70;;;3.97;;
7661;SDS011;30314;48.184;11.510;2023-08-20T02:17:35;8.03;;;4.57;;
7661;SDS011;30314;48.184;11.510;2023-08-20T02:20:02;11.10;;;4.60;;
7661;SDS011;30314;48.184;11.510;2023-08-20T02:22:36;6.43;;;3.83;;
7661;SDS011;30314;48.184;11.510;2023-08-20T02:25:03;9.87;;;4.40;;
7661;SDS011;30314;48.184;11.510;2023-08-20T02:27:30;5.47;;;4.50;;
7661;SDS011;30314;48.184;11.510;2023-08-20T02:29:57;8.57;;;4.90;;
7661;SDS011;30314;48.184;11.510;2023-08-20T02:32:23;6.77;;;4.70;;
7661;SDS011;30314;48.184;11.510;2023-08-20T02:34:50;8.13;;;4.60;;
7661;SDS011;30314;48.184;11.510;2023-08-20T02:37:18;9.00;;;4.50;;
7661;SDS011;30314;48.184;11.510;2023-08-20T02:39:44;6.93;;;4.23;;
7661;SDS011;30314;48.184;11.510;2023-08-20T02:42:11;7.80;;;4.70;;
7661;SDS011;30314;48.184;11.510;2023-08-20T02:44:38;5.17;;;4.13;;
7661;SDS011;30314;48.184;11.510;2023-08-20T02:47:04;5.33;;;4.10;;
7661;SDS011;30314;48.184;11.510;2023-08-20T02:49:31;8.50;;;5.23;;
7661;SDS011;30314;48.184;11.510;2023-08-20T02:51:58;6.40;;;4.30;;
7661;SDS011;30314;48.184;11.510;2023-08-20T02:54:24;5.97;;;4.20;;
7661;SDS011;30314;48.184;11.510;2023-08-20T02:56:52;9.73;;;4.17;;
7661;SDS011;30314;48.184;11.510;2023-08-20T02:59:19;8.63;;;4.53;;
7661;SDS011;30314;48.184;11.510;2023-08-20T03:01:46;6.93;;;4.10;;
7661;SDS011;30314;48.184;11.510;2023-08-20T03:04:13;5.63;;;5.10;;
7661;SDS011;30314;48.184;11.510;2023-08-20T03:06:40;6.90;;;4.17;;
7661;SDS011;30314;48.184;11.510;2023-08-20T03:09:06;7.20;;;4.50;;
7661;SDS011;30314;48.184;11.510;2023-08-20T03:11:33;6.73;;;4.33;;
7661;SDS011;30314;48.184;11.510;2023-08-20T03:14:00;9.73;;;4.77;;
7661;SDS011;30314;48.184;11.510;2023-08-20T03:16:26;8.93;;;4.40;;
7661;SDS011;30314;48.184;11.510;2023-08-20T03:18:53;8.33;;;4.40;;
7661;SDS011;30314;48.184;11.510;2023-08-20T03:21:19;7.60;;;4.43;;
7661;SDS011;30314;48.184;11.510;2023-08-20T03:23:46;9.07;;;4.57;;
7661;SDS011;30314;48.184;11.510;2023-08-20T03:26:13;9.33;;;5.13;;
7661;SDS011;30314;48.184;11.510;2023-08-20T03:28:40;8.40;;;4.27;;
7661;SDS011;30314;48.184;11.510;2023-08-20T03:31:06;11.63;;;4.40;;
7661;SDS011;30314;48.184;11.510;2023-08-20T03:33:37;7.97;;;5.00;;
7661;SDS011;30314;48.184;11.510;2023-08-20T03:36:04;11.27;;;4.40;;
7661;SDS011;30314;48.184;11.510;2023-08-20T03:38:31;9.83;;;5.33;;
7661;SDS011;30314;48.184;11.510;2023-08-20T03:40:57;5.60;;;4.57;;
7661;SDS011;30314;48.184;11.510;2023-08-20T03:43:25;5.83;;;3.70;;
7661;SDS011;30314;48.184;11.510;2023-08-20T03:45:51;7.90;;;4.80;;
7661;SDS011;30314;48.184;11.510;2023-08-20T03:48:19;7.20;;;4.90;;
7661;SDS011;30314;48.184;11.510;2023-08-20T03:50:45;4.83;;;4.07;;
7661;SDS011;30314;48.184;11.510;2023-08-20T03:53:12;5.90;;;4.90;;
7661;SDS011;30314;48.184;11.510;2023-08-20T03:55:38;7.67;;;4.63;;
7661;SDS011;30314;48.184;11.510;2023-08-20T03:58:05;7.10;;;4.40;;
7661;SDS011;30314;48.184;11.510;2023-08-20T04:00:34;7.00;;;4.63;;
7661;SDS011;30314;48.184;11.510;2023-08-20T04:03:01;10.13;;;5.13;;
7661;SDS011;30314;48.184;11.510;2023-08-20T04:05:28;8.40;;;5.50;;
7661;SDS011;30314;48.184;11.510;2023-08-20T04:07:55;7.90;;;4.60;;
7661;SDS011;30314;48.184;11.510;2023-08-20T04:10:22;6.97;;;4.57;;
7661;SDS011;30314;48.184;11.510;2023-08-20T04:12:49;8.47;;;4.90;;
7661;SDS011;30314;48.184;11.510;2023-08-20T04:15:16;8.90;;;4.37;;
7661;SDS011;30314;48.184;11.510;2023-08-20T04:17:43;8.40;;;4.97;;
7661;SDS011;30314;48.184;11.510;2023-08-20T04:20:10;9.80;;;5.23;;
7661;SDS011;30314;48.184;11.510;2023-08-20T04:22:37;6.47;;;4.33;;
7661;SDS011;30314;48.184;11.510;2023-08-20T04:25:04;7.33;;;4.90;;
7661;SDS011;30314;48.184;11.510;2023-08-20T04:27:32;7.70;;;4.93;;
7661;SDS011;30314;48.184;11.510;2023-08-20T04:30:04;5.87;;;4.60;;
7661;SDS011;30314;48.184;11.510;2023-08-20T04:32:31;6.30;;;4.30;;
7661;SDS011;30314;48.184;11.510;2023-08-20T04:34:58;7.50;;;5.00;;
7661;SDS011;30314;48.184;11.510;2023-08-20T04:37:25;6.23;;;4.43;;
7661;SDS011;30314;48.184;11.510;2023-08-20T04:39:52;10.20;;;5.10;;
7661;SDS011;30314;48.184;11.510;2023-08-20T04:42:19;6.70;;;3.90;;
7661;SDS011;30314;48.184;11.510;2023-08-20T04:44:45;6.37;;;4.20;;
7661;SDS011;30314;48.184;11.510;2023-08-20T04:47:12;5.37;;;4.30;;
7661;SDS011;30314;48.184;11.510;2023-08-20T04:49:39;6.07;;;4.60;;
7661;SDS011;30314;48.184;11.510;2023-08-20T04:52:06;8.53;;;5.13;;
7661;SDS011;30314;48.184;11.510;2023-08-20T04:54:33;6.80;;;4.80;;
7661;SDS011;30314;48.184;11.510;2023-08-20T04:57:01;11.17;;;4.77;;
7661;SDS011;30314;48.184;11.510;2023-08-20T04:59:29;6.53;;;4.17;;
7661;SDS011;30314;48.184;11.510;2023-08-20T05:01:58;8.13;;;5.00;;
7661;SDS011;30314;48.184;11.510;2023-08-20T05:04:45;9.80;;;4.80;;
7661;SDS011;30314;48.184;11.510;2023-08-20T05:07:12;10.30;;;4.97;;
7661;SDS011;30314;48.184;11.510;2023-08-20T05:09:39;6.70;;;5.13;;
7661;SDS011;30314;48.184;11.510;2023-08-20T05:12:06;7.80;;;4.30;;
7661;SDS011;30314;48.184;11.510;2023-08-20T05:14:34;10.13;;;5.63;;
7661;SDS011;30314;48.184;11.510;2023-08-20T05:17:00;7.50;;;4.50;;
7661;SDS011;30314;48.184;11.510;2023-08-20T05:19:27;7.53;;;4.90;;
7661;SDS011;30314;48.184;11.510;2023-08-20T05:21:54;7.03;;;4.93;;
7661;SDS011;30314;48.184;11.510;2023-08-20T05:24:28;9.33;;;5.37;;
7661;SDS011;30314;48.184;11.510;2023-08-20T05:27:17;8.27;;;4.80;;
7661;SDS011;30314;48.184;11.510;2023-08-20T05:29:46;9.17;;;4.63;;
7661;SDS011;30314;48.184;11.510;2023-08-20T05:32:14;7.03;;;4.93;;
7661;SDS011;30314;48.184;11.510;2023-08-20T05:34:44;6.77;;;4.47;;
7661;SDS011;30314;48.184;11.510;2023-08-20T05:37:10;8.50;;;4.67;;
7661;SDS011;30314;48.184;11.510;2023-08-20T05:39:42;5.53;;;4.27;;
7661;SDS011;30314;48.184;11.510;2023-08-20T05:42:10;8.43;;;4.10;;
7661;SDS011;30314;48.184;11.510;2023-08-20T05:44:40;9.30;;;4.70;;
7661;SDS011;30314;48.184;11.510;2023-08-20T05:47:11;6.53;;;4.13;;
7661;SDS011;30314;48.184;11.510;2023-08-20T05:49:38;8.57;;;4.07;;
7661;SDS011;30314;48.184;11.510;2023-08-20T05:52:05;5.50;;;3.23;;
7661;SDS011;30314;48.184;11.510;2023-08-20T05:54:33;9.30;;;4.20;;
7661;SDS011;30314;48.184;11.510;2023-08-20T05:56:59;6.03;;;3.23;;
7661;SDS011;30314;48.184;11.510;2023-08-20T05:59:27;6.97;;;3.77;;
7661;SDS011;30314;48.184;11.510;2023-08-20T06:01:54;6.27;;;4.17;;
7661;SDS011;30314;48.184;11.510;2023-08-20T06:04:21;9.10;;;4.33;;
7661;SDS011;30314;48.184;11.510;2023-08-20T06:06:48;6.60;;;3.83;;
7661;SDS011;30314;48.184;11.510;2023-08-20T06:09:15;7.40;;;4.10;;
7661;SDS011;30314;48.184;11.510;2023-08-20T06:11:41;9.40;;;4.40;;
7661;SDS011;30314;48.184;11.510;2023-08-20T06:14:08;17.90;;;4.50;;
7661;SDS011;30314;48.184;11.510;2023-08-20T06:16:34;10.07;;;4.33;;
7661;SDS011;30314;48.184;11.510;2023-08-20T06:19:01;8.43;;;4.40;;
7661;SDS011;30314;48.184;11.510;2023-08-20T06:21:30;6.63;;;4.43;;
7661;SDS011;30314;48.184;11.510;2023-08-20T06:23:57;6.50;;;3.43;;
7661;SDS011;30314;48.184;11.510;2023-08-20T06:26:23;5.57;;;4.03;;
7661;SDS011;30314;48.184;11.510;2023-08-20T06:28:50;6.03;;;3.93;;
7661;SDS011;30314;48.184;11.510;2023-08-20T06:31:17;4.97;;;3.37;;
7661;SDS011;30314;48.184;11.510;2023-08-20T06:33:43;4.53;;;3.70;;
7661;SDS011;30314;48.184;11.510;2023-08-20T06:36:10;9.20;;;4.20;;
7661;SDS011;30314;48.184;11.510;2023-08-20T06:38:36;5.63;;;5.00;;
7661;SDS011;30314;48.184;11.510;2023-08-20T06:41:03;6.40;;;3.70;;
7661;SDS011;30314;48.184;11.510;2023-08-20T06:43:30;9.10;;;4.23;;
7661;SDS011;30314;48.184;11.510;2023-08-20T06:45:56;5.80;;;4.00;;
7661;SDS011;30314;48.184;11.510;2023-08-20T06:48:23;8.00;;;4.17;;
7661;SDS011;30314;48.184;11.510;2023-08-20T06:50:51;9.33;;;5.27;;
7661;SDS011;30314;48.184;11.510;2023-08-20T06:53:17;7.40;;;3.80;;
7661;SDS011;30314;48.184;11.510;2023-08-20T06:55:44;8.50;;;4.47;;
7661;SDS011;30314;48.184;11.510;2023-08-20T06:58:10;10.83;;;3.53;;
7661;SDS011;30314;48.184;11.510;2023-08-20T07:00:37;6.57;;;4.07;;
7661;SDS011;30314;48.184;11.510;2023-08-20T07:03:04;7.20;;;3.43;;
7661;SDS011;30314;48.184;11.510;2023-08-20T07:05:31;4.00;;;3.47;;
7661;SDS011;30314;48.184;11.510;2023-08-20T07:07:57;5.17;;;3.63;;
7661;SDS011;30314;48.184;11.510;2023-08-20T07:10:24;8.37;;;3.83;;
7661;SDS011;30314;48.184;11.510;2023-08-20T07:12:50;6.00;;;4.60;;
7661;SDS011;30314;48.184;11.510;2023-08-20T07:15:17;6.13;;;3.60;;
7661;SDS011;30314;48.184;11.510;2023-08-20T07:17:43;7.53;;;4.37;;
7661;SDS011;30314;48.184;11.510;2023-08-20T07:20:11;6.50;;;4.30;;
7661;SDS011;30314;48.184;11.510;2023-08-20T07:22:38;7.37;;;4.37;;
7661;SDS011;30314;48.184;11.510;2023-08-20T07:25:05;7.80;;;3.80;;
7661;SDS011;30314;48.184;11.510;2023-08-20T07:27:31;8.83;;;3.43;;
7661;SDS011;30314;48.184;11.510;2023-08-20T07:29:59;8.37;;;3.77;;
7661;SDS011;30314;48.184;11.510;2023-08-20T07:32:25;6.53;;;3.47;;
7661;SDS011;30314;48.184;11.510;2023-08-20T07:34:52;8.30;;;4.17;;
7661;SDS011;30314;48.184;11.510;2023-08-20T07:37:19;13.03;;;3.63;;
7661;SDS011;30314;48.184;11.510;2023-08-20T07:39:47;8.30;;;4.00;;
7661;SDS011;30314;48.184;11.510;2023-08-20T07:42:14;10.53;;;3.67;;
7661;SDS011;30314;48.184;11.510;2023-08-20T07:44:40;12.03;;;4.33;;
7661;SDS011;30314;48.184;11.510;2023-08-20T07:47:07;6.63;;;3.67;;
7661;SDS011;30314;48.184;11.510;2023-08-20T07:49:34;6.80;;;3.40;;
7661;SDS011;30314;48.184;11.510;2023-08-20T07:52:01;7.33;;;3.70;;
7661;SDS011;30314;48.184;11.510;2023-08-20T07:54:27;11.50;;;4.40;;
7661;SDS011;30314;48.184;11.510;2023-08-20T07:56:55;7.60;;;3.87;;
7661;SDS011;30314;48.184;11.510;2023-08-20T07:59:22;17.60;;;4.30;;
7661;SDS011;30314;48.184;11.510;2023-08-20T08:01:48;9.43;;;4.30;;
7661;SDS011;30314;48.184;11.510;2023-08-20T08:04:15;5.67;;;3.60;;
7661;SDS011;30314;48.184;11.510;2023-08-20T08:06:42;7.03;;;3.97;;
7661;SDS011;30314;48.184;11.510;2023-08-20T08:09:17;8.97;;;3.53;;
7661;SDS011;30314;48.184;11.510;2023-08-20T08:11:47;8.20;;;3.83;;
7661;SDS011;30314;48.184;11.510;2023-08-20T08:14:14;8.80;;;4.10;;
7661;SDS011;30314;48.184;11.510;2023-08-20T08:16:40;7.43;;;4.73;;
7661;SDS011;30314;48.184;11.510;2023-08-20T08:19:07;9.23;;;4.40;;
7661;SDS011;30314;48.184;11.510;2023-08-20T08:21:35;7.93;;;5.47;;
7661;SDS011;30314;48.184;11.510;2023-08-20T08:24:01;9.20;;;4.57;;
7661;SDS011;30314;48.184;11.510;2023-08-20T08:26:29;5.23;;;4.20;;
7661;SDS011;30314;48.184;11.510;2023-08-20T08:28:56;7.37;;;4.40;;
7661;SDS011;30314;48.184;11.510;2023-08-20T08:31:23;8.10;;;4.30;;
7661;SDS011;30314;48.184;11.510;2023-08-20T08:33:50;7.90;;;4.17;;
7661;SDS011;30314;48.184;11.510;2023-08-20T08:36:16;11.40;;;4.10;;
7661;SDS011;30314;48.184;11.510;2023-08-20T08:38:43;5.87;;;4.07;;
7661;SDS011;30314;48.184;11.510;2023-08-20T08:41:11;4.00;;;3.60;;
7661;SDS011;30314;48.184;11.510;2023-08-20T08:43:38;6.37;;;3.43;;
7661;SDS011;30314;48.184;11.510;2023-08-20T08:46:07;5.33;;;3.57;;
7661;SDS011;30314;48.184;11.510;2023-08-20T08:48:35;4.90;;;3.07;;
7661;SDS011;30314;48.184;11.510;2023-08-20T08:51:02;8.00;;;4.07;;
7661;SDS011;30314;48.184;11.510;2023-08-20T08:53:29;9.10;;;4.20;;
7661;SDS011;30314;48.184;11.510;2023-08-20T08:55:58;5.40;;;3.40;;
7661;SDS011;30314;48.184;11.510;2023-08-20T08:58:26;6.07;;;3.53;;
7661;SDS011;30314;48.184;11.510;2023-08-20T09:00:52;5.77;;;3.87;;
7661;SDS011;30314;48.184;11.510;2023-08-20T09:03:19;5.97;;;3.63;;
7661;SDS011;30314;48.184;11.510;2023-08-20T09:05:50;6.80;;;3.83;;
7661;SDS011;30314;48.184;11.510;2023-08-20T09:08:26;11.97;;;3.90;;
7661;SDS011;30314;48.184;11.510;2023-08-20T09:10:54;6.90;;;3.17;;
7661;SDS011;30314;48.184;11.510;2023-08-20T09:13:23;5.90;;;3.40;;
7661;SDS011;30314;48.184;11.510;2023-08-20T09:15:59;7.30;;;4.43;;
7661;SDS011;30314;48.184;11.510;2023-08-20T09:18:29;7.30;;;3.67;;
7661;SDS011;30314;48.184;11.510;2023-08-20T09:20:57;7.03;;;3.03;;
7661;SDS011;30314;48.184;11.510;2023-08-20T09:23:24;4.93;;;2.87;;
7661;SDS011;30314;48.184;11.510;2023-08-20T09:25:54;9.53;;;2.90;;
7661;SDS011;30314;48.184;11.510;2023-08-20T09:28:21;3.10;;;2.50;;
7661;SDS011;30314;48.184;11.510;2023-08-20T09:30:55;4.30;;;2.90;;
7661;SDS011;30314;48.184;11.510;2023-08-20T09:33:27;4.93;;;3.50;;
7661;SDS011;30314;48.184;11.510;2023-08-20T09:35:54;5.87;;;3.60;;
7661;SDS011;30314;48.184;11.510;2023-08-20T09:38:21;10.40;;;3.97;;
7661;SDS011;30314;48.184;11.510;2023-08-20T09:40:49;3.93;;;3.10;;
7661;SDS011;30314;48.184;11.510;2023-08-20T09:43:19;4.60;;;3.23;;
7661;SDS011;30314;48.184;11.510;2023-08-20T09:45:46;4.77;;;3.30;;
7661;SDS011;30314;48.184;11.510;2023-08-20T09:48:17;4.83;;;3.37;;
7661;SDS011;30314;48.184;11.510;2023-08-20T09:50:48;8.37;;;4.00;;
7661;SDS011;30314;48.184;11.510;2023-08-20T09:58:57;5.00;;;3.10;;
7661;SDS011;30314;48.184;11.510;2023-08-20T10:01:24;4.50;;;3.23;;
7661;SDS011;30314;48.184;11.510;2023-08-20T10:03:52;4.35;;;3.33;;
7661;SDS011;30314;48.184;11.510;2023-08-20T10:06:19;3.87;;;3.10;;
7661;SDS011;30314;48.184;11.510;2023-08-20T10:08:46;9.13;;;3.63;;
7661;SDS011;30314;48.184;11.510;2023-08-20T10:11:15;5.77;;;3.23;;
7661;SDS011;30314;48.184;11.510;2023-08-20T10:13:43;4.00;;;3.37;;
7661;SDS011;30314;48.184;11.510;2023-08-20T10:16:13;3.97;;;2.97;;
7661;SDS011;30314;48.184;11.510;2023-08-20T10:18:40;8.90;;;3.37;;
7661;SDS011;30314;48.184;11.510;2023-08-20T10:21:07;3.90;;;3.43;;
7661;SDS011;30314;48.184;11.510;2023-08-20T10:23:35;5.93;;;3.90;;
7661;SDS011;30314;48.184;11.510;2023-08-20T10:26:07;15.98;;;3.78;;
7661;SDS011;30314;48.184;11.510;2023-08-20T10:28:35;7.37;;;3.70;;
7661;SDS011;30314;48.184;11.510;2023-08-20T10:31:06;5.37;;;3.03;;
7661;SDS011;30314;48.184;11.510;2023-08-20T10:33:35;6.13;;;3.58;;
7661;SDS011;30314;48.184;11.510;2023-08-20T10:36:07;7.80;;;3.23;;
7661;SDS011;30314;48.184;11.510;2023-08-20T10:38:36;5.53;;;3.00;;
7661;SDS011;30314;48.184;11.510;2023-08-20T10:41:07;4.38;;;3.20;;
7661;SDS011;30314;48.184;11.510;2023-08-20T10:43:38;5.90;;;3.65;;
7661;SDS011;30314;48.184;11.510;2023-08-20T10:48:39;6.70;;;3.67;;
7661;SDS011;30314;48.184;11.510;2023-08-20T10:51:07;5.60;;;3.50;;
7661;SDS011;30314;48.184;11.510;2023-08-20T10:53:39;7.25;;;4.05;;
7661;SDS011;30314;48.184;11.510;2023-08-20T10:56:08;5.45;;;3.15;;
7661;SDS011;30314;48.184;11.510;2023-08-20T10:58:35;5.45;;;3.42;;
7661;SDS011;30314;48.184;11.510;2023-08-20T11:03:49;6.10;;;3.95;;
7661;SDS011;30314;48.184;11.510;2023-08-20T11:06:17;5.93;;;4.05;;
7661;SDS011;30314;48.184;11.510;2023-08-20T11:08:45;5.63;;;4.00;;
7661;SDS011;30314;48.184;11.510;2023-08-20T11:11:12;4.75;;;3.70;;
7661;SDS011;30314;48.184;11.510;2023-08-20T11:13:39;8.82;;;3.70;;
7661;SDS011;30314;48.184;11.510;2023-08-20T11:16:06;5.55;;;3.33;;
7661;SDS011;30314;48.184;11.510;2023-08-20T11:18:34;5.15;;;3.47;;
7661;SDS011;30314;48.184;11.510;2023-08-20T11:21:01;5.80;;;3.85;;
7661;SDS011;30314;48.184;11.510;2023-08-20T11:23:28;7.65;;;3.22;;
7661;SDS011;30314;48.184;11.510;2023-08-20T11:25:55;6.93;;;3.67;;
7661;SDS011;30314;48.184;11.510;2023-08-20T11:28:22;6.53;;;3.28;;
7661;SDS011;30314;48.184;11.510;2023-08-20T11:30:49;5.35;;;3.47;;
7661;SDS011;30314;48.184;11.510;2023-08-20T11:33:16;4.22;;;3.60;;
7661;SDS011;30314;48.184;11.510;2023-08-20T11:35:42;4.88;;;3.75;;
7661;SDS011;30314;48.184;11.510;2023-08-20T11:38:09;4.03;;;3.13;;
7661;SDS011;30314;48.184;11.510;2023-08-20T11:40:37;5.40;;;3.15;;
7661;SDS011;30314;48.184;11.510;2023-08-20T11:43:04;4.50;;;3.83;;
7661;SDS011;30314;48.184;11.510;2023-08-20T11:45:30;5.82;;;3.05;;
7661;SDS011;30314;48.184;11.510;2023-08-20T11:47:58;5.75;;;3.75;;
7661;SDS011;30314;48.184;11.510;2023-08-20T11:50:25;7.45;;;3.40;;
7661;SDS011;30314;48.184;11.510;2023-08-20T11:52:53;5.18;;;3.20;;
7661;SDS011;30314;48.184;11.510;2023-08-20T11:55:24;6.22;;;3.13;;
7661;SDS011;30314;48.184;11.510;2023-08-20T11:57:54;12.27;;;3.67;;
7661;SDS011;30314;48.184;11.510;2023-08-20T12:00:24;9.70;;;3.80;;
7661;SDS011;30314;48.184;11.510;2023-08-20T12:02:55;7.95;;;3.58;;
7661;SDS011;30314;48.184;11.510;2023-08-20T12:05:27;7.15;;;3.13;;
7661;SDS011;30314;48.184;11.510;2023-08-20T12:07:55;8.23;;;2.90;;
7661;SDS011;30314;48.184;11.510;2023-08-20T12:10:26;8.85;;;2.80;;
7661;SDS011;30314;48.184;11.510;2023-08-20T12:12:55;4.60;;;3.20;;
7661;SDS011;30314;48.184;11.510;2023-08-20T12:15:23;6.72;;;3.47;;
7661;SDS011;30314;48.184;11.510;2023-08-20T12:18:00;3.45;;;2.58;;
7661;SDS011;30314;48.184;11.510;2023-08-20T12:20:31;5.57;;;3.30;;
7661;SDS011;30314;48.184;11.510;2023-08-20T12:22:59;6.40;;;3.08;;
7661;SDS011;30314;48.184;11.510;2023-08-20T12:25:29;3.67;;;2.83;;
7661;SDS011;30314;48.184;11.510;2023-08-20T12:28:00;3.38;;;3.08;;
7661;SDS011;30314;48.184;11.510;2023-08-20T12:30:27;6.93;;;2.80;;
7661;SDS011;30314;48.184;11.510;2023-08-20T12:32:54;5.22;;;3.15;;
7661;SDS011;30314;48.184;11.510;2023-08-20T12:35:21;4.15;;;3.20;;
7661;SDS011;30314;48.184;11.510;2023-08-20T12:37:48;5.75;;;3.65;;
7661;SDS011;30314;48.184;11.510;2023-08-20T12:40:14;5.60;;;2.90;;
7661;SDS011;30314;48.184;11.510;2023-08-20T12:42:41;10.38;;;2.95;;
7661;SDS011;30314;48.184;11.510;2023-08-20T12:45:10;4.03;;;3.20;;
7661;SDS011;30314;48.184;11.510;2023-08-20T12:47:39;7.22;;;3.08;;
7661;SDS011;30314;48.184;11.510;2023-08-20T12:50:05;5.80;;;3.63;;
7661;SDS011;30314;48.184;11.510;2023-08-20T12:52:32;3.45;;;2.22;;
7661;SDS011;30314;48.184;11.510;2023-08-20T12:54:59;3.17;;;2.85;;
7661;SDS011;30314;48.184;11.510;2023-08-20T12:57:26;4.03;;;2.65;;
7661;SDS011;30314;48.184;11.510;2023-08-20T12:59:52;5.72;;;3.00;;
7661;SDS011;30314;48.184;11.510;2023-08-20T13:02:19;4.97;;;2.90;;
7661;SDS011;30314;48.184;11.510;2023-08-20T13:04:46;13.27;;;3.53;;
7661;SDS011;30314;48.184;11.510;2023-08-20T13:07:13;4.70;;;3.33;;
7661;SDS011;30314;48.184;11.510;2023-08-20T13:09:40;4.45;;;2.78;;
7661;SDS011;30314;48.184;11.510;2023-08-20T13:12:07;3.33;;;2.70;;
7661;SDS011;30314;48.184;11.510;2023-08-20T13:14:40;9.50;;;3.05;;
7661;SDS011;30314;48.184;11.510;2023-08-20T13:17:08;4.63;;;2.40;;
7661;SDS011;30314;48.184;11.510;2023-08-20T13:19:36;12.85;;;3.20;;
7661;SDS011;30314;48.184;11.510;2023-08-20T13:22:03;4.35;;;3.15;;
7661;SDS011;30314;48.184;11.510;2023-08-20T13:24:29;3.50;;;2.85;;
7661;SDS011;30314;48.184;11.510;2023-08-20T13:26:56;6.82;;;2.83;;
7661;SDS011;30314;48.184;11.510;2023-08-20T13:29:22;8.07;;;3.10;;
7661;SDS011;30314;48.184;11.510;2023-08-20T13:31:50;3.13;;;2.53;;
7661;SDS011;30314;48.184;11.510;2023-08-20T13:34:16;3.90;;;2.53;;
7661;SDS011;30314;48.184;11.510;2023-08-20T13:36:43;6.72;;;2.83;;
7661;SDS011;30314;48.184;11.510;2023-08-20T13:39:09;4.68;;;3.63;;
7661;SDS011;30314;48.184;11.510;2023-08-20T13:41:40;3.92;;;3.03;;
7661;SDS011;30314;48.184;11.510;2023-08-20T13:44:07;6.53;;;2.60;;
7661;SDS011;30314;48.184;11.510;2023-08-20T13:46:35;4.43;;;2.85;;
7661;SDS011;30314;48.184;11.510;2023-08-20T13:49:03;8.45;;;3.65;;
7661;SDS011;30314;48.184;11.510;2023-08-20T13:51:29;4.32;;;3.83;;
7661;SDS011;30314;48.184;11.510;2023-08-20T13:53:56;6.07;;;3.78;;
7661;SDS011;30314;48.184;11.510;2023-08-20T13:56:24;7.75;;;4.35;;
7661;SDS011;30314;48.184;11.510;2023-08-20T13:58:55;8.90;;;4.47;;
7661;SDS011;30314;48.184;11.510;2023-08-20T14:01:27;4.10;;;3.60;;
7661;SDS011;30314;48.184;11.510;2023-08-20T14:03:54;5.15;;;4.00;;
7661;SDS011;30314;48.184;11.510;2023-08-20T14:06:20;7.60;;;3.08;;
7661;SDS011;30314;48.184;11.510;2023-08-20T14:08:47;8.73;;;3.33;;
7661;SDS011;30314;48.184;11.510;2023-08-20T14:11:14;7.70;;;3.75;;
7661;SDS011;30314;48.184;11.510;2023-08-20T14:13:41;3.92;;;2.95;;
7661;SDS011;30314;48.184;11.510;2023-08-20T14:16:09;5.32;;;3.80;;
7661;SDS011;30314;48.184;11.510;2023-08-20T14:18:35;5.78;;;3.47;;
7661;SDS011;30314;48.184;11.510;2023-08-20T14:21:02;5.47;;;3.47;;
7661;SDS011;30314;48.184;11.510;2023-08-20T14:23:29;8.45;;;4.63;;
7661;SDS011;30314;48.184;11.510;2023-08-20T14:25:56;3.90;;;3.00;;
7661;SDS011;30314;48.184;11.510;2023-08-20T14:28:22;10.27;;;3.72;;
7661;SDS011;30314;48.184;11.510;2023-08-20T14:30:49;5.55;;;3.40;;
7661;SDS011;30314;48.184;11.510;2023-08-20T14:33:17;4.55;;;3.58;;
7661;SDS011;30314;48.184;11.510;2023-08-20T14:35:44;6.63;;;3.88;;
7661;SDS011;30314;48.184;11.510;2023-08-20T14:38:12;5.13;;;3.95;;
7661;SDS011;30314;48.184;11.510;2023-08-20T14:40:39;6.55;;;4.22;;
7661;SDS011;30314;48.184;11.510;2023-08-20T14:43:07;5.80;;;3.75;;
7661;SDS011;30314;48.184;11.510;2023-08-20T14:45:34;6.57;;;3.67;;
7661;SDS011;30314;48.184;11.510;2023-08-20T14:48:01;5.13;;;3.78;;
7661;SDS011;30314;48.184;11.510;2023-08-20T14:50:29;4.32;;;3.65;;
7661;SDS011;30314;48.184;11.510;2023-08-20T14:52:56;3.60;;;3.30;;
7661;SDS011;30314;48.184;11.510;2023-08-20T14:55:22;4.47;;;4.07;;
7661;SDS011;30314;48.184;11.510;2023-08-20T14:57:49;4.43;;;3.75;;
7661;SDS011;30314;48.184;11.510;2023-08-20T15:00:18;7.35;;;3.85;;
7661;SDS011;30314;48.184;11.510;2023-08-20T15:02:45;7.35;;;4.38;;
7661;SDS011;30314;48.184;11.510;2023-08-20T15:05:12;4.93;;;3.85;;
7661;SDS011;30314;48.184;11.510;2023-08-20T15:07:39;6.13;;;5.07;;
7661;SDS011;30314;48.184;11.510;2023-08-20T15:10:06;4.70;;;4.15;;
7661;SDS011;30314;48.184;11.510;2023-08-20T15:12:33;7.75;;;3.22;;
7661;SDS011;30314;48.184;11.510;2023-08-20T15:15:01;4.25;;;3.72;;
7661;SDS011;30314;48.184;11.510;2023-08-20T15:17:30;4.88;;;4.03;;